Terminal Aerodrome Forecast
Issued by NWS

Current Version | Previous Version | Text Only | Print | Product List | Glossary On
Versions: 1 2 3 4 5 6 7 8 9 10 11 12 13 14 15 16 17 18 19 20 21 22 23
000
FTUS41 KBGM 171900 AAA
TAFELM
TAF AMD
KELM 171922Z 1719/1818 VRB06KT P6SM BKN050
     FM180100 00000KT P6SM SKC
      TEMPO 1804/1808 1SM BR
     FM180800 VRB04KT 2SM BR SCT002
      TEMPO 1809/1813 1/4SM FG VV001
     FM181400 36009KT P6SM OVC050=

USA.gov is the U.S. government's official web portal to all federal, state and local government web resources and services.